sensor_id;sensor_type;location;lat;lon;timestamp;P1;durP1;ratioP1;P2;durP2;ratioP2
39874;SDS011;25547;52.530;13.194;2022-12-13T00:00:15;18.63;;;8.32;;
39874;SDS011;25547;52.530;13.194;2022-12-13T00:02:45;18.52;;;8.13;;
39874;SDS011;25547;52.530;13.194;2022-12-13T00:05:11;20.00;;;8.40;;
39874;SDS011;25547;52.530;13.194;2022-12-13T00:07:38;20.75;;;9.70;;
39874;SDS011;25547;52.530;13.194;2022-12-13T00:10:07;16.00;;;7.60;;
39874;SDS011;25547;52.530;13.194;2022-12-13T00:12:35;21.08;;;8.50;;
39874;SDS011;25547;52.530;13.194;2022-12-13T00:15:01;18.65;;;8.23;;
39874;SDS011;25547;52.530;13.194;2022-12-13T00:17:27;21.80;;;9.48;;
39874;SDS011;25547;52.530;13.194;2022-12-13T00:19:52;23.40;;;9.73;;
39874;SDS011;25547;52.530;13.194;2022-12-13T00:22:18;19.33;;;9.13;;
39874;SDS011;25547;52.530;13.194;2022-12-13T00:24:44;17.92;;;8.82;;
39874;SDS011;25547;52.530;13.194;2022-12-13T00:27:12;19.63;;;8.90;;
39874;SDS011;25547;52.530;13.194;2022-12-13T00:29:42;17.05;;;7.22;;
39874;SDS011;25547;52.530;13.194;2022-12-13T00:32:08;17.05;;;6.70;;
39874;SDS011;25547;52.530;13.194;2022-12-13T00:34:34;17.30;;;8.80;;
39874;SDS011;25547;52.530;13.194;2022-12-13T00:37:02;18.25;;;8.57;;
39874;SDS011;25547;52.530;13.194;2022-12-13T00:39:28;18.30;;;7.50;;
39874;SDS011;25547;52.530;13.194;2022-12-13T00:41:54;18.42;;;7.53;;
39874;SDS011;25547;52.530;13.194;2022-12-13T00:44:24;18.30;;;7.70;;
39874;SDS011;25547;52.530;13.194;2022-12-13T00:46:50;14.90;;;7.43;;
39874;SDS011;25547;52.530;13.194;2022-12-13T00:49:17;22.15;;;9.13;;
39874;SDS011;25547;52.530;13.194;2022-12-13T00:51:45;22.15;;;8.57;;
39874;SDS011;25547;52.530;13.194;2022-12-13T00:54:13;19.65;;;7.78;;
39874;SDS011;25547;52.530;13.194;2022-12-13T00:56:40;18.45;;;8.75;;
39874;SDS011;25547;52.530;13.194;2022-12-13T00:59:06;20.58;;;9.45;;
39874;SDS011;25547;52.530;13.194;2022-12-13T01:01:32;22.90;;;10.38;;
39874;SDS011;25547;52.530;13.194;2022-12-13T01:04:00;22.73;;;10.25;;
39874;SDS011;25547;52.530;13.194;2022-12-13T01:06:38;22.98;;;9.55;;
39874;SDS011;25547;52.530;13.194;2022-12-13T01:09:13;23.58;;;10.73;;
39874;SDS011;25547;52.530;13.194;2022-12-13T01:11:41;20.00;;;9.95;;
39874;SDS011;25547;52.530;13.194;2022-12-13T01:14:07;17.33;;;7.45;;
39874;SDS011;25547;52.530;13.194;2022-12-13T01:16:33;21.90;;;9.50;;
39874;SDS011;25547;52.530;13.194;2022-12-13T01:18:59;23.10;;;10.90;;
39874;SDS011;25547;52.530;13.194;2022-12-13T01:21:25;23.27;;;9.35;;
39874;SDS011;25547;52.530;13.194;2022-12-13T01:23:50;18.58;;;7.88;;
39874;SDS011;25547;52.530;13.194;2022-12-13T01:26:21;22.00;;;7.85;;
39874;SDS011;25547;52.530;13.194;2022-12-13T01:28:48;22.08;;;9.00;;
39874;SDS011;25547;52.530;13.194;2022-12-13T01:31:15;18.05;;;7.53;;
39874;SDS011;25547;52.530;13.194;2022-12-13T01:33:44;20.25;;;8.88;;
39874;SDS011;25547;52.530;13.194;2022-12-13T01:36:12;19.70;;;7.97;;
39874;SDS011;25547;52.530;13.194;2022-12-13T01:38:43;19.65;;;6.88;;
39874;SDS011;25547;52.530;13.194;2022-12-13T01:41:16;20.23;;;7.70;;
39874;SDS011;25547;52.530;13.194;2022-12-13T01:46:19;15.05;;;6.80;;
39874;SDS011;25547;52.530;13.194;2022-12-13T01:51:11;21.02;;;8.18;;
39874;SDS011;25547;52.530;13.194;2022-12-13T01:53:40;20.77;;;8.52;;
39874;SDS011;25547;52.530;13.194;2022-12-13T01:56:11;18.00;;;8.23;;
39874;SDS011;25547;52.530;13.194;2022-12-13T01:58:45;18.60;;;7.30;;
39874;SDS011;25547;52.530;13.194;2022-12-13T02:01:15;18.42;;;7.72;;
39874;SDS011;25547;52.530;13.194;2022-12-13T02:03:42;16.90;;;7.93;;
39874;SDS011;25547;52.530;13.194;2022-12-13T02:09:08;18.00;;;9.43;;
39874;SDS011;25547;52.530;13.194;2022-12-13T02:11:38;22.08;;;8.25;;
39874;SDS011;25547;52.530;13.194;2022-12-13T02:22:06;16.75;;;8.18;;
39874;SDS011;25547;52.530;13.194;2022-12-13T02:28:15;22.00;;;8.70;;
39874;SDS011;25547;52.530;13.194;2022-12-13T02:31:09;19.80;;;9.07;;
39874;SDS011;25547;52.530;13.194;2022-12-13T02:34:00;17.58;;;7.95;;
39874;SDS011;25547;52.530;13.194;2022-12-13T02:41:48;23.75;;;9.32;;
39874;SDS011;25547;52.530;13.194;2022-12-13T02:46:48;19.05;;;7.55;;
39874;SDS011;25547;52.530;13.194;2022-12-13T02:49:20;24.30;;;10.15;;
39874;SDS011;25547;52.530;13.194;2022-12-13T02:51:50;23.98;;;9.68;;
39874;SDS011;25547;52.530;13.194;2022-12-13T02:54:17;24.20;;;10.25;;
39874;SDS011;25547;52.530;13.194;2022-12-13T02:56:51;23.50;;;10.13;;
39874;SDS011;25547;52.530;13.194;2022-12-13T02:59:21;20.55;;;9.07;;
39874;SDS011;25547;52.530;13.194;2022-12-13T03:04:44;25.02;;;10.93;;
39874;SDS011;25547;52.530;13.194;2022-12-13T03:08:25;24.27;;;9.40;;
39874;SDS011;25547;52.530;13.194;2022-12-13T03:11:14;15.73;;;5.80;;
39874;SDS011;25547;52.530;13.194;2022-12-13T03:13:47;18.65;;;7.13;;
39874;SDS011;25547;52.530;13.194;2022-12-13T03:18:54;17.95;;;8.48;;
39874;SDS011;25547;52.530;13.194;2022-12-13T03:21:25;19.05;;;7.88;;
39874;SDS011;25547;52.530;13.194;2022-12-13T03:23:53;23.67;;;10.35;;
39874;SDS011;25547;52.530;13.194;2022-12-13T03:26:20;18.98;;;7.50;;
39874;SDS011;25547;52.530;13.194;2022-12-13T03:28:50;20.38;;;8.00;;
39874;SDS011;25547;52.530;13.194;2022-12-13T03:31:16;18.70;;;8.32;;
39874;SDS011;25547;52.530;13.194;2022-12-13T03:33:42;19.40;;;7.60;;
39874;SDS011;25547;52.530;13.194;2022-12-13T03:36:08;18.02;;;8.07;;
39874;SDS011;25547;52.530;13.194;2022-12-13T03:38:38;17.23;;;8.85;;
39874;SDS011;25547;52.530;13.194;2022-12-13T03:41:06;19.70;;;7.68;;
39874;SDS011;25547;52.530;13.194;2022-12-13T03:43:34;20.13;;;8.65;;
39874;SDS011;25547;52.530;13.194;2022-12-13T03:46:00;16.48;;;8.20;;
39874;SDS011;25547;52.530;13.194;2022-12-13T03:48:26;16.85;;;7.75;;
39874;SDS011;25547;52.530;13.194;2022-12-13T03:50:54;16.35;;;7.80;;
39874;SDS011;25547;52.530;13.194;2022-12-13T03:53:20;18.08;;;8.07;;
39874;SDS011;25547;52.530;13.194;2022-12-13T03:55:58;18.00;;;7.93;;
39874;SDS011;25547;52.530;13.194;2022-12-13T03:58:27;17.38;;;7.95;;
39874;SDS011;25547;52.530;13.194;2022-12-13T04:00:53;16.48;;;7.18;;
39874;SDS011;25547;52.530;13.194;2022-12-13T04:03:19;16.88;;;7.05;;
39874;SDS011;25547;52.530;13.194;2022-12-13T04:05:45;17.58;;;6.70;;
39874;SDS011;25547;52.530;13.194;2022-12-13T04:08:13;15.32;;;6.80;;
39874;SDS011;25547;52.530;13.194;2022-12-13T04:10:39;18.25;;;8.60;;
39874;SDS011;25547;52.530;13.194;2022-12-13T04:13:04;15.18;;;7.53;;
39874;SDS011;25547;52.530;13.194;2022-12-13T04:15:53;19.55;;;7.82;;
39874;SDS011;25547;52.530;13.194;2022-12-13T04:18:19;17.17;;;7.03;;
39874;SDS011;25547;52.530;13.194;2022-12-13T04:20:47;15.65;;;7.43;;
39874;SDS011;25547;52.530;13.194;2022-12-13T04:23:15;18.20;;;7.30;;
39874;SDS011;25547;52.530;13.194;2022-12-13T04:25:41;17.50;;;7.00;;
39874;SDS011;25547;52.530;13.194;2022-12-13T04:28:07;21.98;;;8.82;;
39874;SDS011;25547;52.530;13.194;2022-12-13T04:30:34;17.75;;;7.97;;
39874;SDS011;25547;52.530;13.194;2022-12-13T04:33:07;16.27;;;7.35;;
39874;SDS011;25547;52.530;13.194;2022-12-13T04:35:37;15.40;;;7.25;;
39874;SDS011;25547;52.530;13.194;2022-12-13T04:38:05;20.42;;;8.48;;
39874;SDS011;25547;52.530;13.194;2022-12-13T04:40:31;15.13;;;7.25;;
39874;SDS011;25547;52.530;13.194;2022-12-13T04:42:57;14.95;;;7.15;;
39874;SDS011;25547;52.530;13.194;2022-12-13T04:45:22;19.90;;;7.55;;
39874;SDS011;25547;52.530;13.194;2022-12-13T04:47:48;16.75;;;6.65;;
39874;SDS011;25547;52.530;13.194;2022-12-13T04:50:16;17.95;;;7.47;;
39874;SDS011;25547;52.530;13.194;2022-12-13T04:52:42;18.23;;;7.45;;
39874;SDS011;25547;52.530;13.194;2022-12-13T04:55:09;18.42;;;8.57;;
39874;SDS011;25547;52.530;13.194;2022-12-13T04:57:35;14.00;;;6.32;;
39874;SDS011;25547;52.530;13.194;2022-12-13T05:00:03;19.27;;;7.82;;
39874;SDS011;25547;52.530;13.194;2022-12-13T05:02:33;15.85;;;6.50;;
39874;SDS011;25547;52.530;13.194;2022-12-13T05:04:58;19.98;;;8.35;;
39874;SDS011;25547;52.530;13.194;2022-12-13T05:07:24;14.60;;;6.57;;
39874;SDS011;25547;52.530;13.194;2022-12-13T05:09:51;17.67;;;7.53;;
39874;SDS011;25547;52.530;13.194;2022-12-13T05:12:16;16.77;;;7.68;;
39874;SDS011;25547;52.530;13.194;2022-12-13T05:14:44;18.67;;;7.70;;
39874;SDS011;25547;52.530;13.194;2022-12-13T05:17:10;17.73;;;7.65;;
39874;SDS011;25547;52.530;13.194;2022-12-13T05:19:36;23.13;;;8.80;;
39874;SDS011;25547;52.530;13.194;2022-12-13T05:22:02;15.80;;;6.78;;
39874;SDS011;25547;52.530;13.194;2022-12-13T05:24:28;17.02;;;7.53;;
39874;SDS011;25547;52.530;13.194;2022-12-13T05:26:55;18.95;;;8.00;;
39874;SDS011;25547;52.530;13.194;2022-12-13T05:29:26;17.30;;;8.02;;
39874;SDS011;25547;52.530;13.194;2022-12-13T05:31:55;21.38;;;9.82;;
39874;SDS011;25547;52.530;13.194;2022-12-13T05:34:23;18.17;;;8.45;;
39874;SDS011;25547;52.530;13.194;2022-12-13T05:36:49;18.58;;;8.48;;
39874;SDS011;25547;52.530;13.194;2022-12-13T05:39:17;20.02;;;8.32;;
39874;SDS011;25547;52.530;13.194;2022-12-13T05:41:43;20.17;;;9.07;;
39874;SDS011;25547;52.530;13.194;2022-12-13T05:44:08;16.65;;;7.97;;
39874;SDS011;25547;52.530;13.194;2022-12-13T05:46:38;17.15;;;6.75;;
39874;SDS011;25547;52.530;13.194;2022-12-13T05:49:04;25.30;;;9.00;;
39874;SDS011;25547;52.530;13.194;2022-12-13T05:51:30;17.70;;;8.07;;
39874;SDS011;25547;52.530;13.194;2022-12-13T05:53:56;19.85;;;9.45;;
39874;SDS011;25547;52.530;13.194;2022-12-13T05:56:21;18.70;;;7.85;;
39874;SDS011;25547;52.530;13.194;2022-12-13T05:58:47;19.98;;;9.73;;
39874;SDS011;25547;52.530;13.194;2022-12-13T06:01:13;26.73;;;11.18;;
39874;SDS011;25547;52.530;13.194;2022-12-13T06:03:41;22.45;;;9.77;;
39874;SDS011;25547;52.530;13.194;2022-12-13T06:06:10;20.65;;;10.27;;
39874;SDS011;25547;52.530;13.194;2022-12-13T06:08:36;22.52;;;10.82;;
39874;SDS011;25547;52.530;13.194;2022-12-13T06:11:08;28.15;;;10.77;;
39874;SDS011;25547;52.530;13.194;2022-12-13T06:13:36;18.67;;;9.55;;
39874;SDS011;25547;52.530;13.194;2022-12-13T06:16:03;23.00;;;9.73;;
39874;SDS011;25547;52.530;13.194;2022-12-13T06:18:30;24.90;;;10.85;;
39874;SDS011;25547;52.530;13.194;2022-12-13T06:21:03;22.83;;;10.63;;
39874;SDS011;25547;52.530;13.194;2022-12-13T06:23:30;21.90;;;10.13;;
39874;SDS011;25547;52.530;13.194;2022-12-13T06:26:02;22.33;;;9.93;;
39874;SDS011;25547;52.530;13.194;2022-12-13T06:28:31;25.52;;;11.15;;
39874;SDS011;25547;52.530;13.194;2022-12-13T06:30:58;24.35;;;11.88;;
39874;SDS011;25547;52.530;13.194;2022-12-13T06:33:25;22.92;;;10.45;;
39874;SDS011;25547;52.530;13.194;2022-12-13T06:35:51;24.92;;;10.90;;
39874;SDS011;25547;52.530;13.194;2022-12-13T06:38:21;25.20;;;10.70;;
39874;SDS011;25547;52.530;13.194;2022-12-13T06:40:50;25.38;;;10.30;;
39874;SDS011;25547;52.530;13.194;2022-12-13T06:43:16;22.17;;;11.45;;
39874;SDS011;25547;52.530;13.194;2022-12-13T06:45:43;26.83;;;10.98;;
39874;SDS011;25547;52.530;13.194;2022-12-13T06:48:11;21.08;;;9.55;;
39874;SDS011;25547;52.530;13.194;2022-12-13T06:50:37;28.08;;;11.68;;
39874;SDS011;25547;52.530;13.194;2022-12-13T06:53:03;27.70;;;12.93;;
39874;SDS011;25547;52.530;13.194;2022-12-13T06:55:29;26.75;;;11.65;;
39874;SDS011;25547;52.530;13.194;2022-12-13T06:57:57;24.02;;;10.38;;
39874;SDS011;25547;52.530;13.194;2022-12-13T07:00:23;30.10;;;12.35;;
39874;SDS011;25547;52.530;13.194;2022-12-13T07:02:52;24.40;;;11.23;;
39874;SDS011;25547;52.530;13.194;2022-12-13T07:05:18;27.97;;;13.47;;
39874;SDS011;25547;52.530;13.194;2022-12-13T07:07:47;25.73;;;11.32;;
39874;SDS011;25547;52.530;13.194;2022-12-13T07:10:12;27.13;;;11.45;;
39874;SDS011;25547;52.530;13.194;2022-12-13T07:12:38;28.38;;;12.82;;
39874;SDS011;25547;52.530;13.194;2022-12-13T07:15:04;23.48;;;11.32;;
39874;SDS011;25547;52.530;13.194;2022-12-13T07:17:30;27.55;;;11.30;;
39874;SDS011;25547;52.530;13.194;2022-12-13T07:19:58;21.80;;;10.98;;
39874;SDS011;25547;52.530;13.194;2022-12-13T07:22:24;22.85;;;10.45;;
39874;SDS011;25547;52.530;13.194;2022-12-13T07:24:50;28.60;;;12.60;;
39874;SDS011;25547;52.530;13.194;2022-12-13T07:27:18;23.20;;;11.48;;
39874;SDS011;25547;52.530;13.194;2022-12-13T07:29:43;23.42;;;11.00;;
39874;SDS011;25547;52.530;13.194;2022-12-13T07:32:09;24.25;;;11.77;;
39874;SDS011;25547;52.530;13.194;2022-12-13T07:34:35;27.30;;;10.55;;
39874;SDS011;25547;52.530;13.194;2022-12-13T07:37:04;22.45;;;11.07;;
39874;SDS011;25547;52.530;13.194;2022-12-13T07:39:29;24.50;;;10.80;;
39874;SDS011;25547;52.530;13.194;2022-12-13T07:41:56;29.52;;;12.88;;
39874;SDS011;25547;52.530;13.194;2022-12-13T07:44:22;22.77;;;10.02;;
39874;SDS011;25547;52.530;13.194;2022-12-13T07:46:48;24.13;;;10.57;;
39874;SDS011;25547;52.530;13.194;2022-12-13T07:49:14;22.10;;;10.57;;
39874;SDS011;25547;52.530;13.194;2022-12-13T07:51:42;24.65;;;11.07;;
39874;SDS011;25547;52.530;13.194;2022-12-13T07:54:10;22.02;;;10.90;;
39874;SDS011;25547;52.530;13.194;2022-12-13T07:56:36;26.40;;;12.15;;
39874;SDS011;25547;52.530;13.194;2022-12-13T07:59:04;24.50;;;10.18;;
39874;SDS011;25547;52.530;13.194;2022-12-13T08:01:32;27.40;;;12.02;;
39874;SDS011;25547;52.530;13.194;2022-12-13T08:03:59;28.05;;;11.93;;
39874;SDS011;25547;52.530;13.194;2022-12-13T08:06:25;24.80;;;11.57;;
39874;SDS011;25547;52.530;13.194;2022-12-13T08:08:56;28.30;;;11.90;;
39874;SDS011;25547;52.530;13.194;2022-12-13T08:11:24;28.83;;;12.88;;
39874;SDS011;25547;52.530;13.194;2022-12-13T08:13:52;28.45;;;12.98;;
39874;SDS011;25547;52.530;13.194;2022-12-13T08:16:20;26.80;;;12.50;;
39874;SDS011;25547;52.530;13.194;2022-12-13T08:18:46;23.27;;;10.27;;
39874;SDS011;25547;52.530;13.194;2022-12-13T08:21:12;25.50;;;10.45;;
39874;SDS011;25547;52.530;13.194;2022-12-13T08:23:38;20.77;;;9.48;;
39874;SDS011;25547;52.530;13.194;2022-12-13T08:26:04;19.30;;;9.98;;
39874;SDS011;25547;52.530;13.194;2022-12-13T08:28:31;23.98;;;10.93;;
39874;SDS011;25547;52.530;13.194;2022-12-13T08:31:04;30.38;;;11.68;;
39874;SDS011;25547;52.530;13.194;2022-12-13T08:33:33;22.30;;;11.23;;
39874;SDS011;25547;52.530;13.194;2022-12-13T08:36:12;27.88;;;12.02;;
39874;SDS011;25547;52.530;13.194;2022-12-13T08:41:09;24.63;;;11.10;;
39874;SDS011;25547;52.530;13.194;2022-12-13T08:43:36;21.67;;;10.48;;
39874;SDS011;25547;52.530;13.194;2022-12-13T08:46:02;24.80;;;11.40;;
39874;SDS011;25547;52.530;13.194;2022-12-13T08:48:28;24.00;;;10.98;;
39874;SDS011;25547;52.530;13.194;2022-12-13T08:51:00;25.33;;;11.98;;
39874;SDS011;25547;52.530;13.194;2022-12-13T08:53:38;24.30;;;11.68;;
39874;SDS011;25547;52.530;13.194;2022-12-13T08:56:05;26.35;;;13.10;;
39874;SDS011;25547;52.530;13.194;2022-12-13T08:58:34;24.85;;;11.63;;
39874;SDS011;25547;52.530;13.194;2022-12-13T09:01:04;24.67;;;11.30;;
39874;SDS011;25547;52.530;13.194;2022-12-13T09:03:33;21.98;;;10.60;;
39874;SDS011;25547;52.530;13.194;2022-12-13T09:06:08;24.05;;;11.07;;
39874;SDS011;25547;52.530;13.194;2022-12-13T09:08:39;23.80;;;10.93;;
39874;SDS011;25547;52.530;13.194;2022-12-13T09:11:06;29.80;;;14.43;;
39874;SDS011;25547;52.530;13.194;2022-12-13T09:13:33;25.80;;;11.77;;
39874;SDS011;25547;52.530;13.194;2022-12-13T09:16:05;23.60;;;10.57;;
39874;SDS011;25547;52.530;13.194;2022-12-13T09:18:39;25.83;;;12.00;;
39874;SDS011;25547;52.530;13.194;2022-12-13T09:21:06;27.80;;;10.43;;
39874;SDS011;25547;52.530;13.194;2022-12-13T09:23:35;24.13;;;11.00;;
39874;SDS011;25547;52.530;13.194;2022-12-13T09:26:05;24.92;;;10.43;;
39874;SDS011;25547;52.530;13.194;2022-12-13T09:28:32;25.60;;;11.82;;
39874;SDS011;25547;52.530;13.194;2022-12-13T09:31:05;30.05;;;12.52;;
39874;SDS011;25547;52.530;13.194;2022-12-13T09:33:35;25.15;;;11.32;;
39874;SDS011;25547;52.530;13.194;2022-12-13T09:36:05;25.40;;;10.95;;
39874;SDS011;25547;52.530;13.194;2022-12-13T09:38:35;24.65;;;10.90;;
39874;SDS011;25547;52.530;13.194;2022-12-13T09:41:03;25.15;;;12.02;;
39874;SDS011;25547;52.530;13.194;2022-12-13T09:43:37;25.55;;;10.73;;
39874;SDS011;25547;52.530;13.194;2022-12-13T09:46:05;24.58;;;11.20;;
39874;SDS011;25547;52.530;13.194;2022-12-13T09:48:35;47.53;;;14.65;;
39874;SDS011;25547;52.530;13.194;2022-12-13T09:51:01;63.45;;;16.58;;
39874;SDS011;25547;52.530;13.194;2022-12-13T09:53:27;25.52;;;11.15;;
39874;SDS011;25547;52.530;13.194;2022-12-13T09:55:53;25.60;;;11.77;;
39874;SDS011;25547;52.530;13.194;2022-12-13T09:58:30;24.35;;;11.18;;
39874;SDS011;25547;52.530;13.194;2022-12-13T10:01:00;29.17;;;11.27;;
39874;SDS011;25547;52.530;13.194;2022-12-13T10:03:29;19.40;;;8.93;;
39874;SDS011;25547;52.530;13.194;2022-12-13T10:05:56;22.10;;;10.27;;
39874;SDS011;25547;52.530;13.194;2022-12-13T10:08:30;23.08;;;10.90;;
39874;SDS011;25547;52.530;13.194;2022-12-13T10:11:01;24.63;;;11.68;;
39874;SDS011;25547;52.530;13.194;2022-12-13T10:18:55;21.38;;;10.57;;
39874;SDS011;25547;52.530;13.194;2022-12-13T10:23:46;24.10;;;11.48;;
39874;SDS011;25547;52.530;13.194;2022-12-13T10:26:12;22.70;;;10.70;;
39874;SDS011;25547;52.530;13.194;2022-12-13T10:28:38;22.02;;;10.10;;
39874;SDS011;25547;52.530;13.194;2022-12-13T10:31:06;29.25;;;11.40;;
39874;SDS011;25547;52.530;13.194;2022-12-13T10:38:35;25.17;;;10.77;;
39874;SDS011;25547;52.530;13.194;2022-12-13T10:41:26;27.00;;;10.07;;
39874;SDS011;25547;52.530;13.194;2022-12-13T10:44:07;18.90;;;9.13;;
39874;SDS011;25547;52.530;13.194;2022-12-13T10:46:36;17.70;;;8.55;;
39874;SDS011;25547;52.530;13.194;2022-12-13T10:49:14;19.05;;;9.77;;
39874;SDS011;25547;52.530;13.194;2022-12-13T10:51:48;18.55;;;7.68;;
39874;SDS011;25547;52.530;13.194;2022-12-13T10:54:18;16.00;;;7.40;;
39874;SDS011;25547;52.530;13.194;2022-12-13T10:56:52;22.17;;;7.50;;
39874;SDS011;25547;52.530;13.194;2022-12-13T11:01:58;14.95;;;7.93;;
39874;SDS011;25547;52.530;13.194;2022-12-13T11:04:32;17.60;;;8.45;;
39874;SDS011;25547;52.530;13.194;2022-12-13T11:06:59;21.63;;;8.07;;
39874;SDS011;25547;52.530;13.194;2022-12-13T11:09:44;19.63;;;8.18;;
39874;SDS011;25547;52.530;13.194;2022-12-13T11:12:11;13.70;;;5.85;;
39874;SDS011;25547;52.530;13.194;2022-12-13T11:14:48;15.77;;;7.38;;
39874;SDS011;25547;52.530;13.194;2022-12-13T11:17:24;18.60;;;7.43;;
39874;SDS011;25547;52.530;13.194;2022-12-13T11:19:52;12.75;;;6.85;;
39874;SDS011;25547;52.530;13.194;2022-12-13T11:22:30;16.58;;;7.22;;
39874;SDS011;25547;52.530;13.194;2022-12-13T11:25:07;15.40;;;7.78;;
39874;SDS011;25547;52.530;13.194;2022-12-13T11:41:52;19.92;;;9.20;;
39874;SDS011;25547;52.530;13.194;2022-12-13T11:44:10;18.30;;;7.68;;
39874;SDS011;25547;52.530;13.194;2022-12-13T11:46:49;19.38;;;7.85;;
39874;SDS011;25547;52.530;13.194;2022-12-13T11:49:23;15.82;;;7.13;;
39874;SDS011;25547;52.530;13.194;2022-12-13T11:51:55;20.92;;;8.32;;
39874;SDS011;25547;52.530;13.194;2022-12-13T12:02:59;16.92;;;7.45;;
39874;SDS011;25547;52.530;13.194;2022-12-13T12:08:45;27.33;;;11.05;;
39874;SDS011;25547;52.530;13.194;2022-12-13T12:19:17;14.77;;;7.15;;
39874;SDS011;25547;52.530;13.194;2022-12-13T12:24:40;17.75;;;6.82;;
39874;SDS011;25547;52.530;13.194;2022-12-13T12:32:40;11.85;;;6.13;;
39874;SDS011;25547;52.530;13.194;2022-12-13T12:37:52;16.20;;;7.55;;
39874;SDS011;25547;52.530;13.194;2022-12-13T12:43:53;15.40;;;6.93;;
39874;SDS011;25547;52.530;13.194;2022-12-13T12:51:53;17.20;;;6.50;;
39874;SDS011;25547;52.530;13.194;2022-12-13T12:54:26;16.85;;;6.50;;
39874;SDS011;25547;52.530;13.194;2022-12-13T13:07:58;17.00;;;7.45;;
39874;SDS011;25547;52.530;13.194;2022-12-13T13:10:38;13.90;;;6.30;;
39874;SDS011;25547;52.530;13.194;2022-12-13T13:13:29;15.90;;;7.13;;
39874;SDS011;25547;52.530;13.194;2022-12-13T13:15:59;17.45;;;8.20;;
39874;SDS011;25547;52.530;13.194;2022-12-13T13:18:45;15.55;;;6.63;;
39874;SDS011;25547;52.530;13.194;2022-12-13T13:26:40;16.70;;;6.63;;
39874;SDS011;25547;52.530;13.194;2022-12-13T13:36:57;15.25;;;5.95;;
39874;SDS011;25547;52.530;13.194;2022-12-13T13:42:07;16.90;;;7.13;;
39874;SDS011;25547;52.530;13.194;2022-12-13T14:04:09;13.38;;;6.85;;
39874;SDS011;25547;52.530;13.194;2022-12-13T14:07:08;18.42;;;8.07;;
39874;SDS011;25547;52.530;13.194;2022-12-13T14:20:58;15.98;;;6.85;;
39874;SDS011;25547;52.530;13.194;2022-12-13T14:28:57;16.15;;;7.40;;
39874;SDS011;25547;52.530;13.194;2022-12-13T14:31:35;15.93;;;6.28;;
39874;SDS011;25547;52.530;13.194;2022-12-13T14:34:06;12.20;;;5.85;;
39874;SDS011;25547;52.530;13.194;2022-12-13T14:36:40;15.75;;;6.22;;
39874;SDS011;25547;52.530;13.194;2022-12-13T14:39:13;17.75;;;6.32;;
39874;SDS011;25547;52.530;13.194;2022-12-13T14:41:44;18.48;;;5.95;;
39874;SDS011;25547;52.530;13.194;2022-12-13T14:46:47;16.88;;;6.95;;
39874;SDS011;25547;52.530;13.194;2022-12-13T14:51:40;16.73;;;7.18;;
39874;SDS011;25547;52.530;13.194;2022-12-13T14:54:06;18.77;;;9.18;;
39874;SDS011;25547;52.530;13.194;2022-12-13T14:56:54;14.70;;;6.63;;
39874;SDS011;25547;52.530;13.194;2022-12-13T14:59:23;17.25;;;8.10;;
39874;SDS011;25547;52.530;13.194;2022-12-13T15:02:00;17.88;;;7.78;;
39874;SDS011;25547;52.530;13.194;2022-12-13T15:04:32;13.52;;;6.28;;
39874;SDS011;25547;52.530;13.194;2022-12-13T15:09:48;15.98;;;7.15;;
39874;SDS011;25547;52.530;13.194;2022-12-13T15:12:19;13.93;;;6.93;;
39874;SDS011;25547;52.530;13.194;2022-12-13T15:14:48;14.20;;;6.07;;
39874;SDS011;25547;52.530;13.194;2022-12-13T15:17:53;15.27;;;6.88;;
39874;SDS011;25547;52.530;13.194;2022-12-13T15:20:20;14.93;;;5.55;;
39874;SDS011;25547;52.530;13.194;2022-12-13T15:22:47;15.63;;;6.57;;
39874;SDS011;25547;52.530;13.194;2022-12-13T15:25:34;14.63;;;6.75;;
39874;SDS011;25547;52.530;13.194;2022-12-13T15:28:03;14.40;;;6.00;;
39874;SDS011;25547;52.530;13.194;2022-12-13T15:30:30;14.60;;;5.45;;
39874;SDS011;25547;52.530;13.194;2022-12-13T15:33:23;15.27;;;6.35;;
39874;SDS011;25547;52.530;13.194;2022-12-13T15:38:39;15.38;;;6.43;;
39874;SDS011;25547;52.530;13.194;2022-12-13T15:41:14;13.68;;;5.50;;
39874;SDS011;25547;52.530;13.194;2022-12-13T15:43:43;13.20;;;4.83;;
39874;SDS011;25547;52.530;13.194;2022-12-13T15:46:12;16.00;;;6.90;;
39874;SDS011;25547;52.530;13.194;2022-12-13T15:48:42;15.23;;;6.78;;
39874;SDS011;25547;52.530;13.194;2022-12-13T15:51:15;12.15;;;6.05;;
39874;SDS011;25547;52.530;13.194;2022-12-13T15:56:38;11.82;;;6.00;;
39874;SDS011;25547;52.530;13.194;2022-12-13T15:59:25;12.88;;;4.75;;
39874;SDS011;25547;52.530;13.194;2022-12-13T16:01:55;17.77;;;6.85;;
39874;SDS011;25547;52.530;13.194;2022-12-13T16:04:26;15.00;;;5.90;;
39874;SDS011;25547;52.530;13.194;2022-12-13T16:06:54;18.08;;;6.85;;
39874;SDS011;25547;52.530;13.194;2022-12-13T16:09:25;10.40;;;6.15;;
39874;SDS011;25547;52.530;13.194;2022-12-13T16:14:34;15.65;;;6.60;;
39874;SDS011;25547;52.530;13.194;2022-12-13T16:17:22;19.40;;;7.10;;
39874;SDS011;25547;52.530;13.194;2022-12-13T16:19:53;15.40;;;6.35;;
39874;SDS011;25547;52.530;13.194;2022-12-13T16:22:22;14.85;;;7.85;;
39874;SDS011;25547;52.530;13.194;2022-12-13T16:24:48;16.88;;;6.55;;
39874;SDS011;25547;52.530;13.194;2022-12-13T16:27:20;15.15;;;6.28;;
39874;SDS011;25547;52.530;13.194;2022-12-13T16:29:45;16.58;;;6.40;;
39874;SDS011;25547;52.530;13.194;2022-12-13T16:32:11;14.82;;;5.70;;
39874;SDS011;25547;52.530;13.194;2022-12-13T16:34:37;17.25;;;6.40;;
39874;SDS011;25547;52.530;13.194;2022-12-13T16:37:03;15.02;;;7.15;;
39874;SDS011;25547;52.530;13.194;2022-12-13T16:39:29;15.63;;;6.72;;
39874;SDS011;25547;52.530;13.194;2022-12-13T16:41:56;16.77;;;7.72;;
39874;SDS011;25547;52.530;13.194;2022-12-13T16:44:43;22.23;;;6.63;;
39874;SDS011;25547;52.530;13.194;2022-12-13T16:47:08;16.73;;;8.10;;
39874;SDS011;25547;52.530;13.194;2022-12-13T16:49:36;18.42;;;6.30;;
39874;SDS011;25547;52.530;13.194;2022-12-13T16:52:04;14.57;;;6.45;;
39874;SDS011;25547;52.530;13.194;2022-12-13T16:54:31;18.48;;;7.60;;
39874;SDS011;25547;52.530;13.194;2022-12-13T16:56:57;20.27;;;8.05;;
39874;SDS011;25547;52.530;13.194;2022-12-13T16:59:26;21.08;;;9.10;;
39874;SDS011;25547;52.530;13.194;2022-12-13T17:01:52;20.73;;;7.90;;
39874;SDS011;25547;52.530;13.194;2022-12-13T17:04:20;20.30;;;8.27;;
39874;SDS011;25547;52.530;13.194;2022-12-13T17:06:50;21.83;;;7.68;;
39874;SDS011;25547;52.530;13.194;2022-12-13T17:09:18;18.10;;;7.95;;
39874;SDS011;25547;52.530;13.194;2022-12-13T17:11:44;15.70;;;6.90;;
39874;SDS011;25547;52.530;13.194;2022-12-13T17:14:10;21.13;;;8.95;;
39874;SDS011;25547;52.530;13.194;2022-12-13T17:16:38;20.00;;;9.00;;
39874;SDS011;25547;52.530;13.194;2022-12-13T17:19:03;19.58;;;8.60;;
39874;SDS011;25547;52.530;13.194;2022-12-13T17:21:29;24.73;;;9.38;;
39874;SDS011;25547;52.530;13.194;2022-12-13T17:26:21;28.20;;;11.45;;
39874;SDS011;25547;52.530;13.194;2022-12-13T17:28:47;28.38;;;11.25;;
39874;SDS011;25547;52.530;13.194;2022-12-13T17:31:18;22.52;;;9.98;;
39874;SDS011;25547;52.530;13.194;2022-12-13T17:33:44;24.10;;;10.27;;
39874;SDS011;25547;52.530;13.194;2022-12-13T17:36:10;21.67;;;9.82;;
39874;SDS011;25547;52.530;13.194;2022-12-13T17:38:40;23.65;;;10.40;;